This is the latest recevied weather packets stored in our database for station/object WA4OPQ-1. If no packets are shown the sender has not sent any weather packets the latest 10 day(s).
| Time | Temp. | Humidity | Pressure | Rain* | Wind** | Luminosity | Snow |
|---|---|---|---|---|---|---|---|
| 1787770399 | 20.56° C | 99% | 1014.1 hPa | 1.78 mm | 0.89 m/s, 286° | 71 W/m² | - |
| 1787769834 | 20.56° C | 99% | 1014.3 hPa | 4.83 mm | 0.89 m/s, 292° | 65 W/m² | - |
| 1787769236 | 20.56° C | 99% | 1014.8 hPa | 5.59 mm | 0 m/s | 25 W/m² | - |
| 1787768646 | 20.56° C | 99% | 1014.8 hPa | 5.08 mm | 0 m/s | 9 W/m² | - |
| 1787768118 | 20.56° C | 99% | 1015 hPa | 5.08 mm | 0 m/s | 5 W/m² | - |
| 1787767606 | 20.56° C | 99% | 1015.1 hPa | 5.08 mm | 0 m/s | 4 W/m² | - |
| 1787766804 | 20.56° C | 99% | 1015.2 hPa | 4.06 mm | 1.79 m/s, 306° | 4 W/m² | - |
| 1787766209 | 21.11° C | 99% | 1015.2 hPa | 1.02 mm | 0 m/s | 2 W/m² | - |
| 1787765714 | 22.22° C | 97% | 1014.9 hPa | 0 mm | 0.89 m/s, 343° | 2 W/m² | - |
| 1787765194 | 23.89° C | 96% | 1014 hPa | 0 mm | 0.45 m/s, 315° | 4 W/m² | - |
| 1787764639 | 24.44° C | 93% | 1014.2 hPa | 0 mm | 0 m/s | 15 W/m² | - |
| 1787764049 | 24.44° C | 89% | 1013.9 hPa | 0 mm | 0 m/s | 20 W/m² | - |
| 1787763552 | 25° C | 90% | 1013.9 hPa | 0 mm | 0 m/s | 24 W/m² | - |
| 1787763054 | 25° C | 91% | 1014 hPa | 0 mm | 0 m/s | 32 W/m² | - |
| 1787762471 | 25.56° C | 91% | 1014 hPa | 0 mm | 0 m/s | 41 W/m² | - |
| 1787761939 | 25.56° C | 89% | 1014 hPa | 0 mm | 0 m/s | 46 W/m² | - |
| 1787761419 | 25.56° C | 87% | 1014.1 hPa | 0 mm | 0 m/s | 54 W/m² | - |
| 1787760824 | 25.56° C | 86% | 1014.2 hPa | 0 mm | 0 m/s | 62 W/m² | - |
| 1787760229 | 26.11° C | 84% | 1014.1 hPa | 0 mm | 0 m/s | 63 W/m² | - |
| 1787759656 | 26.67° C | 81% | 1013.9 hPa | 0 mm | 0 m/s | 88 W/m² | - |
| 1787759149 | 27.22° C | 78% | 1014 hPa | 0 mm | 0 m/s | 134 W/m² | - |
| 1787758604 | 27.22° C | 81% | 1014.2 hPa | 0 mm | 0 m/s | 164 W/m² | - |
| 1787758029 | 27.22° C | 78% | 1013.7 hPa | 0 mm | 0 m/s | 209 W/m² | - |
| 1787757479 | 27.22° C | 78% | 1013.3 hPa | 0 mm | 0 m/s | 296 W/m² | - |
| 1787756997 | 27.22° C | 81% | 1013.3 hPa | 0 mm | 0.89 m/s, 298° | 414 W/m² | - |
* Rain latest hour (hover to see other rain measurements)
** Current wind speed in m/s (hover to see current wind gust speed)